Time;durP1;ratioP1;P1;durP2;ratioP2;P2;SDS_P1;SDS_P2;PMS_P1;PMS_P2;Temp;Humidity;BMP_temperature;BMP_pressure;BME280_temperature;BME280_humidity;BME280_pressure;Samples;Min_cycle;Max_cycle;Signal;HPM_P1;HPM_P2
2022/03/30 03:02:25;;;;;;;1.80;1.70;;;14.50;58.20;;;;;;5225155;23;20490;-74
2022/03/30 03:04:52;;;;;;;1.60;1.50;;;14.40;57.80;;;;;;4958407;28;20454;-74
2022/03/30 03:07:19;;;;;;;2.00;1.90;;;14.40;57.90;;;;;;4959131;28;20462;-74
2022/03/30 03:09:46;;;;;;;1.60;1.50;;;14.40;57.70;;;;;;4958458;28;20455;-74
2022/03/30 03:12:13;;;;;;;1.77;1.67;;;14.40;58.00;;;;;;4958194;28;20511;-74
2022/03/30 03:14:39;;;;;;;1.80;1.70;;;14.20;57.80;;;;;;5000703;23;20499;-72
2022/03/30 03:17:06;;;;;;;1.97;1.80;;;14.10;58.70;;;;;;4955712;28;20447;-73
2022/03/30 03:19:35;;;;;;;1.90;1.80;;;14.00;58.70;;;;;;4957225;28;20910;-73
2022/03/30 03:22:02;;;;;;;1.90;1.80;;;14.00;58.40;;;;;;4955261;28;20513;-72
2022/03/30 03:24:28;;;;;;;2.07;1.97;;;13.90;58.80;;;;;;4954859;28;20486;-72
2022/03/30 03:26:55;;;;;;;1.90;1.80;;;14.00;58.90;;;;;;4955035;28;20443;-72
2022/03/30 03:29:22;;;;;;;3.20;1.70;;;14.10;58.90;;;;;;4955007;28;20494;-72
2022/03/30 03:31:48;;;;;;;1.87;1.77;;;14.10;59.10;;;;;;4955082;28;20502;-73
2022/03/30 03:34:15;;;;;;;2.13;2.03;;;14.20;58.80;;;;;;4955490;28;20467;-71
2022/03/30 03:36:43;;;;;;;2.37;2.17;;;14.10;58.50;;;;;;4954878;28;20455;-71
2022/03/30 03:39:10;;;;;;;2.00;1.90;;;14.00;58.90;;;;;;4955026;28;20451;-72
2022/03/30 03:41:37;;;;;;;2.00;1.90;;;14.10;59.30;;;;;;4955088;28;20443;-71
2022/03/30 03:44:04;;;;;;;1.67;1.57;;;14.20;59.60;;;;;;4954880;28;20501;-72
2022/03/30 03:46:30;;;;;;;2.00;1.90;;;14.20;59.90;;;;;;4954828;28;20514;-72
2022/03/30 03:48:57;;;;;;;2.10;2.00;;;14.20;59.70;;;;;;4954955;28;20458;-72
2022/03/30 03:51:24;;;;;;;2.23;2.13;;;14.00;59.10;;;;;;4954842;28;20503;-72
2022/03/30 03:53:52;;;;;;;2.57;2.37;;;13.70;59.90;;;;;;4954971;28;20565;-72
2022/03/30 03:56:19;;;;;;;1.80;1.70;;;13.60;59.80;;;;;;4954830;28;20446;-71
2022/03/30 03:58:48;;;;;;;1.60;1.50;;;13.60;60.60;;;;;;4956578;28;21013;-72
2022/03/30 04:01:15;;;;;;;1.80;1.70;;;13.70;61.00;;;;;;4958739;28;20450;-71
2022/03/30 04:03:42;;;;;;;2.17;2.07;;;13.80;61.20;;;;;;4958495;28;20486;-72
2022/03/30 04:06:09;;;;;;;1.80;1.70;;;13.70;60.30;;;;;;4958577;28;20549;-72
2022/03/30 04:08:36;;;;;;;1.70;1.60;;;13.70;60.80;;;;;;4958543;28;20513;-72
2022/03/30 04:11:04;;;;;;;1.63;1.53;;;13.70;60.80;;;;;;4958593;28;20466;-72
2022/03/30 04:13:31;;;;;;;2.13;2.00;;;13.70;61.00;;;;;;4957920;28;20502;-72
2022/03/30 04:15:58;;;;;;;1.97;1.87;;;13.70;61.10;;;;;;4958822;28;20439;-72
2022/03/30 04:18:25;;;;;;;1.93;1.83;;;13.70;61.40;;;;;;4958297;28;20485;-72
2022/03/30 04:20:51;;;;;;;1.83;1.73;;;13.70;61.30;;;;;;4958260;28;20864;-72
2022/03/30 04:23:18;;;;;;;2.13;2.03;;;13.40;62.40;;;;;;4957659;28;20998;-72
2022/03/30 04:25:45;;;;;;;1.63;1.53;;;13.50;62.70;;;;;;4957864;28;20965;-72
2022/03/30 04:28:14;;;;;;;1.70;1.60;;;13.50;62.70;;;;;;4958044;28;20447;-71
2022/03/30 04:30:41;;;;;;;1.77;1.67;;;13.40;63.00;;;;;;4958096;28;20514;-71
2022/03/30 04:33:09;;;;;;;1.70;1.60;;;13.20;64.20;;;;;;4957566;28;20938;-72
2022/03/30 04:35:36;;;;;;;1.93;1.73;;;13.30;64.70;;;;;;4958045;28;20450;-72
2022/03/30 04:38:02;;;;;;;1.77;1.67;;;13.20;65.40;;;;;;4957692;28;20942;-72
2022/03/30 04:40:29;;;;;;;2.13;1.93;;;13.10;66.60;;;;;;4958100;28;20459;-72
2022/03/30 04:42:56;;;;;;;1.70;1.60;;;12.80;67.90;;;;;;4957738;28;20906;-72
2022/03/30 04:45:25;;;;;;;2.07;1.97;;;12.50;69.50;;;;;;4957434;28;20470;-72
2022/03/30 04:47:53;;;;;;;1.60;1.50;;;12.50;70.30;;;;;;4957687;28;20521;-72
2022/03/30 04:50:20;;;;;;;2.07;1.97;;;12.40;70.90;;;;;;4957186;28;20482;-72
2022/03/30 04:52:47;;;;;;;2.30;1.63;;;12.40;71.20;;;;;;4957714;28;20459;-72
2022/03/30 04:55:14;;;;;;;1.70;1.60;;;12.30;71.80;;;;;;4958102;28;20526;-72
2022/03/30 04:57:42;;;;;;;1.60;1.50;;;12.20;72.40;;;;;;4959021;28;20511;-73
2022/03/30 05:00:11;;;;;;;2.13;1.80;;;12.00;73.40;;;;;;4958893;28;20497;-73
2022/03/30 05:02:40;;;;;;;2.23;2.10;;;12.20;73.90;;;;;;4958545;28;20522;-71
2022/03/30 05:05:09;;;;;;;1.80;1.70;;;12.00;74.20;;;;;;4958195;28;20510;-74
2022/03/30 05:07:36;;;;;;;2.00;1.90;;;12.20;74.90;;;;;;4958302;28;20451;-73
2022/03/30 05:10:05;;;;;;;2.13;2.03;;;12.20;74.30;;;;;;4957067;28;20455;-73
2022/03/30 05:12:32;;;;;;;1.93;1.80;;;12.10;75.00;;;;;;4958396;28;20498;-73
2022/03/30 05:14:59;;;;;;;1.77;1.67;;;12.20;75.60;;;;;;4957963;28;20494;-72
2022/03/30 05:17:25;;;;;;;2.13;1.93;;;12.30;75.80;;;;;;4958057;28;20458;-73
2022/03/30 05:19:53;;;;;;;1.87;1.77;;;12.40;75.60;;;;;;4958814;28;20458;-71
2022/03/30 05:22:20;;;;;;;2.03;1.83;;;12.40;75.70;;;;;;4958319;28;20455;-71
2022/03/30 05:24:47;;;;;;;1.70;1.60;;;12.50;75.80;;;;;;4958356;28;20490;-73
2022/03/30 05:27:14;;;;;;;1.83;1.73;;;12.60;75.70;;;;;;4957654;28;20873;-71
2022/03/30 05:29:40;;;;;;;1.57;1.47;;;12.60;75.70;;;;;;4957831;28;20455;-71
2022/03/30 05:32:08;;;;;;;1.93;1.73;;;12.70;76.00;;;;;;4957680;28;20937;-73
2022/03/30 05:34:34;;;;;;;1.83;1.70;;;12.70;75.70;;;;;;4957947;28;20474;-73
2022/03/30 05:37:03;;;;;;;1.70;1.60;;;12.70;75.60;;;;;;4957831;28;20866;-72
2022/03/30 05:39:31;;;;;;;2.13;1.93;;;12.60;75.60;;;;;;4957786;28;20451;-71
2022/03/30 05:41:57;;;;;;;2.07;1.90;;;12.70;75.90;;;;;;4956861;28;20506;-72
2022/03/30 05:44:24;;;;;;;2.27;2.17;;;12.70;75.90;;;;;;4956981;28;20916;-71
2022/03/30 05:46:51;;;;;;;2.23;2.13;;;12.60;76.60;;;;;;4956768;28;20454;-71
2022/03/30 05:49:17;;;;;;;2.40;2.20;;;12.50;76.80;;;;;;4956452;28;20828;-71
2022/03/30 05:51:45;;;;;;;1.77;1.67;;;12.50;76.90;;;;;;4957042;28;20459;-71
2022/03/30 05:54:13;;;;;;;1.70;1.60;;;12.50;76.90;;;;;;4956299;28;21041;-72
2022/03/30 05:59:24;;;;;;;2.03;1.83;;;12.50;76.80;;;;;;4957622;29;20463;-71
2022/03/30 06:01:51;;;;;;;1.90;1.80;;;12.60;76.90;;;;;;4957598;28;20455;-73
2022/03/30 06:04:18;;;;;;;1.80;1.70;;;12.60;77.00;;;;;;4957488;28;20502;-71
2022/03/30 06:06:44;;;;;;;1.77;1.67;;;12.70;77.00;;;;;;4957303;28;20502;-73
2022/03/30 06:09:13;;;;;;;1.80;1.70;;;12.70;77.10;;;;;;4957062;28;20458;-73
2022/03/30 06:11:39;;;;;;;1.67;1.57;;;12.60;77.30;;;;;;4957745;28;20476;-72
2022/03/30 06:14:06;;;;;;;1.93;1.83;;;12.70;77.20;;;;;;4957214;28;20513;-72
2022/03/30 06:16:33;;;;;;;2.03;1.93;;;12.70;76.90;;;;;;4957217;28;20451;-71
2022/03/30 06:19:00;;;;;;;2.20;1.80;;;12.80;76.80;;;;;;4956249;28;20463;-72
2022/03/30 06:21:28;;;;;;;2.10;2.00;;;12.80;76.60;;;;;;4956157;28;20481;-72
2022/03/30 06:23:55;;;;;;;1.60;1.50;;;12.80;76.40;;;;;;4956320;28;20483;-72
2022/03/30 06:26:24;;;;;;;1.73;1.63;;;12.80;76.30;;;;;;4955950;28;20546;-71
2022/03/30 06:28:51;;;;;;;2.10;2.00;;;12.70;76.60;;;;;;4955935;28;20451;-72
2022/03/30 06:31:18;;;;;;;1.77;1.67;;;12.70;76.90;;;;;;4955582;28;20560;-71
2022/03/30 06:33:45;;;;;;;1.90;1.80;;;12.60;77.20;;;;;;4955681;28;21049;-71
2022/03/30 06:36:12;;;;;;;2.00;1.90;;;12.60;77.20;;;;;;4955579;28;20804;-71
2022/03/30 06:38:39;;;;;;;1.90;1.80;;;12.70;77.30;;;;;;4955629;28;20447;-71
2022/03/30 06:41:07;;;;;;;1.70;1.60;;;12.70;77.50;;;;;;4955803;28;20506;-72
2022/03/30 06:43:36;;;;;;;2.20;2.10;;;12.70;77.60;;;;;;4955727;28;20493;-71
2022/03/30 06:46:03;;;;;;;2.10;1.90;;;12.60;77.80;;;;;;4955430;28;20558;-72
2022/03/30 06:48:30;;;;;;;2.07;1.87;;;12.50;77.90;;;;;;4955861;28;20451;-71
2022/03/30 06:50:57;;;;;;;2.40;2.20;;;12.40;77.80;;;;;;4955651;28;20562;-71
2022/03/30 06:53:24;;;;;;;2.10;1.90;;;12.20;77.90;;;;;;4955591;28;20569;-71
2022/03/30 06:55:52;;;;;;;2.03;1.93;;;12.00;78.90;;;;;;4955515;28;20549;-71
2022/03/30 06:58:18;;;;;;;2.57;2.00;;;12.10;79.10;;;;;;4955230;28;20554;-71
2022/03/30 07:00:46;;;;;;;2.17;2.07;;;11.90;78.60;;;;;;4955910;28;20514;-71
2022/03/30 07:03:13;;;;;;;2.20;2.00;;;11.80;80.10;;;;;;4955399;28;20451;-70
2022/03/30 07:05:40;;;;;;;2.03;1.93;;;11.80;78.90;;;;;;4955020;28;20997;-70
2022/03/30 07:10:51;;;;;;;3.57;2.17;;;11.40;81.10;;;;;;4955060;29;20415;-70
2022/03/30 07:13:19;;;;;;;2.00;1.90;;;11.20;81.40;;;;;;4954938;28;20486;-70
2022/03/30 07:15:47;;;;;;;1.90;1.80;;;11.30;81.40;;;;;;4955111;28;20451;-70
2022/03/30 07:18:13;;;;;;;2.10;2.00;;;11.40;81.70;;;;;;4955090;28;20458;-70
2022/03/30 07:20:41;;;;;;;2.07;1.97;;;11.40;81.30;;;;;;4955024;28;20447;-70
2022/03/30 07:23:10;;;;;;;2.37;2.27;;;11.50;81.00;;;;;;4954919;28;20463;-71
2022/03/30 07:25:38;;;;;;;1.77;1.67;;;11.70;80.60;;;;;;4954968;28;20498;-70
2022/03/30 07:28:05;;;;;;;2.30;2.20;;;11.70;80.20;;;;;;4955039;28;20447;-70
2022/03/30 07:30:33;;;;;;;2.20;2.10;;;11.70;80.30;;;;;;4954702;28;20935;-70
2022/03/30 07:33:01;;;;;;;2.20;2.00;;;11.50;80.60;;;;;;4954770;28;20455;-72
2022/03/30 07:35:32;;;;;;;2.40;2.20;;;11.60;81.20;;;;;;4956618;28;20934;-70
2022/03/30 07:38:00;;;;;;;2.00;1.90;;;11.70;80.80;;;;;;4954882;28;20819;-71
2022/03/30 07:40:27;;;;;;;2.10;2.00;;;11.70;80.50;;;;;;4954817;28;20494;-70
2022/03/30 07:42:55;;;;;;;1.90;1.80;;;11.90;80.50;;;;;;4954914;28;20459;-71
2022/03/30 07:45:22;;;;;;;2.10;2.00;;;11.80;80.10;;;;;;4954389;28;20897;-71
2022/03/30 07:47:48;;;;;;;1.90;1.80;;;11.60;80.10;;;;;;4954758;28;20490;-70
2022/03/30 07:50:17;;;;;;;2.10;2.00;;;11.40;81.30;;;;;;4954732;28;20890;-69
2022/03/30 07:52:45;;;;;;;1.80;1.70;;;11.40;81.80;;;;;;4954465;28;20858;-71
2022/03/30 07:55:12;;;;;;;2.00;1.90;;;11.60;81.80;;;;;;4954725;28;20493;-71
2022/03/30 07:57:42;;;;;;;2.17;2.07;;;11.70;81.20;;;;;;4955357;28;20451;-71
2022/03/30 08:00:10;;;;;;;2.07;1.70;;;11.60;81.20;;;;;;4955077;28;20454;-70
2022/03/30 08:02:37;;;;;;;2.10;2.00;;;11.40;82.00;;;;;;4954748;28;20462;-71
2022/03/30 08:05:04;;;;;;;2.03;1.93;;;11.30;81.80;;;;;;4954370;28;20890;-71
2022/03/30 08:07:34;;;;;;;1.50;1.40;;;11.30;82.70;;;;;;4954696;28;20476;-71
2022/03/30 08:10:01;;;;;;;2.13;1.97;;;11.40;82.80;;;;;;4955017;28;20455;-73
2022/03/30 08:12:27;;;;;;;1.80;1.70;;;11.60;82.40;;;;;;4954675;28;20451;-70
2022/03/30 08:14:54;;;;;;;1.83;1.73;;;11.70;81.20;;;;;;4954262;28;20490;-71
2022/03/30 08:17:21;;;;;;;1.80;1.70;;;11.70;81.00;;;;;;4954719;28;20545;-70
2022/03/30 08:19:48;;;;;;;2.07;1.87;;;11.40;81.40;;;;;;4954561;28;20451;-70
2022/03/30 08:22:26;;;;;;;1.70;1.60;;;11.50;82.20;;;;;;4954333;28;20446;-70
2022/03/30 08:24:55;;;;;;;1.83;1.63;;;11.40;82.00;;;;;;4954395;28;20533;-71
2022/03/30 08:27:23;;;;;;;1.77;1.67;;;11.50;82.00;;;;;;4954588;28;20451;-70
2022/03/30 08:29:50;;;;;;;1.63;1.53;;;11.50;81.80;;;;;;4954503;28;20451;-73
2022/03/30 08:32:19;;;;;;;2.10;2.00;;;11.50;81.60;;;;;;4954167;28;20900;-70
2022/03/30 08:34:46;;;;;;;1.93;1.50;;;11.40;82.80;;;;;;4954158;28;20463;-73
2022/03/30 08:37:13;;;;;;;1.90;1.80;;;11.40;83.10;;;;;;4954859;28;20443;-70
2022/03/30 08:39:40;;;;;;;1.63;1.53;;;11.60;82.90;;;;;;4954466;28;20538;-70
2022/03/30 08:42:10;;;;;;;1.63;1.53;;;11.70;81.40;;;;;;4954598;28;20447;-70
2022/03/30 08:44:38;;;;;;;1.60;1.50;;;11.60;81.00;;;;;;4955646;28;20483;-70
2022/03/30 08:47:05;;;;;;;1.87;1.70;;;11.50;81.60;;;;;;4957619;28;20878;-71
2022/03/30 08:49:34;;;;;;;2.07;1.70;;;11.50;82.00;;;;;;4957956;28;20446;-71
2022/03/30 08:52:02;;;;;;;1.80;1.70;;;11.50;82.90;;;;;;4957497;28;20459;-71
2022/03/30 08:54:29;;;;;;;1.57;1.47;;;11.50;82.20;;;;;;4957759;28;20475;-71
2022/03/30 08:56:56;;;;;;;1.60;1.50;;;11.60;82.30;;;;;;4957611;28;20510;-70
2022/03/30 08:59:25;;;;;;;2.00;1.87;;;11.70;82.20;;;;;;4957660;28;20447;-70
2022/03/30 09:01:55;;;;;;;1.90;1.70;;;11.70;82.20;;;;;;4957599;28;20517;-71
2022/03/30 09:04:22;;;;;;;2.17;1.70;;;11.70;82.10;;;;;;4957276;28;20525;-70
2022/03/30 09:06:51;;;;;;;1.70;1.60;;;11.70;81.80;;;;;;4957559;28;20447;-71
2022/03/30 09:09:28;;;;;;;2.00;1.80;;;11.90;82.20;;;;;;4957152;28;20938;-71
2022/03/30 09:11:55;;;;;;;2.23;2.00;;;12.00;81.70;;;;;;4957321;28;20486;-71
2022/03/30 09:14:26;;;;;;;1.47;1.37;;;12.10;81.70;;;;;;5067941;23;20526;-75
2022/03/30 09:16:55;;;;;;;1.50;1.40;;;12.30;81.50;;;;;;4957837;28;20447;-72
2022/03/30 09:19:23;;;;;;;1.23;1.13;;;12.50;81.10;;;;;;4957664;28;20916;-73
2022/03/30 09:21:52;;;;;;;2.20;1.57;;;12.70;80.40;;;;;;4957699;28;20497;-74
2022/03/30 09:24:21;;;;;;;1.90;1.60;;;12.50;79.60;;;;;;4957152;28;21041;-73
2022/03/30 09:26:48;;;;;;;1.50;1.40;;;12.60;79.80;;;;;;4957582;28;20451;-74
2022/03/30 09:29:15;;;;;;;2.03;1.60;;;12.70;80.10;;;;;;4957222;28;20998;-73
2022/03/30 09:31:44;;;;;;;2.00;1.80;;;12.80;79.80;;;;;;4957113;28;20953;-73
2022/03/30 09:34:11;;;;;;;1.60;1.50;;;12.90;79.90;;;;;;4957299;28;20525;-74
2022/03/30 09:36:40;;;;;;;2.33;2.13;;;13.00;79.50;;;;;;4957417;28;20447;-74
2022/03/30 09:39:09;;;;;;;2.00;1.80;;;13.10;78.80;;;;;;4957133;28;20807;-74
2022/03/30 09:41:46;;;;;;;2.13;1.47;;;13.20;78.70;;;;;;4957655;28;20451;-74
2022/03/30 09:44:14;;;;;;;3.13;1.80;;;12.80;78.90;;;;;;4957093;28;20470;-74
2022/03/30 09:46:53;;;;;;;1.97;1.50;;;12.70;80.40;;;;;;4956874;29;21026;-74
2022/03/30 09:49:33;;;;;;;1.83;1.73;;;12.80;80.70;;;;;;4956873;28;20908;-73
2022/03/30 09:52:00;;;;;;;2.13;1.50;;;13.00;80.80;;;;;;4957282;28;20451;-74
2022/03/30 09:54:41;;;;;;;1.47;1.37;;;13.00;80.50;;;;;;4956977;28;20471;-73
2022/03/30 09:57:17;;;;;;;1.63;1.50;;;12.90;79.90;;;;;;4956633;28;20575;-73
2022/03/30 10:00:05;;;;;;;1.53;1.43;;;13.00;80.50;;;;;;4956656;28;20450;-73
2022/03/30 10:02:35;;;;;;;1.50;1.40;;;12.90;80.30;;;;;;4957790;28;20432;-73
2022/03/30 10:05:03;;;;;;;1.50;1.40;;;12.90;80.40;;;;;;4956903;28;20665;-73
2022/03/30 10:07:30;;;;;;;1.37;1.27;;;12.90;80.40;;;;;;4957067;28;20454;-73
2022/03/30 10:09:58;;;;;;;2.60;1.80;;;12.90;81.00;;;;;;4956961;28;20455;-73
2022/03/30 10:12:26;;;;;;;1.90;1.80;;;13.10;81.40;;;;;;4956929;28;20450;-73
2022/03/30 10:14:53;;;;;;;1.47;1.37;;;13.20;80.30;;;;;;4956634;28;20538;-73
2022/03/30 10:17:22;;;;;;;1.50;1.40;;;13.30;79.80;;;;;;4956956;28;20542;-73
2022/03/30 10:19:52;;;;;;;1.90;1.80;;;13.40;79.80;;;;;;4957025;28;20463;-73
2022/03/30 10:22:52;;;;;;;1.63;1.53;;;13.60;80.00;;;;;;4957117;28;20428;-74
2022/03/30 10:25:33;;;;;;;1.73;1.40;;;13.60;79.20;;;;;;4956576;28;20574;-73
2022/03/30 10:28:17;;;;;;;1.47;1.37;;;13.60;79.40;;;;;;4957010;28;20465;-74
2022/03/30 10:30:45;;;;;;;1.43;1.33;;;13.50;80.20;;;;;;4956299;28;21023;-73
2022/03/30 10:33:13;;;;;;;1.53;1.43;;;13.60;80.50;;;;;;4956943;28;20455;-73
2022/03/30 10:35:44;;;;;;;1.70;1.33;;;13.40;79.80;;;;;;4956243;28;20986;-74
2022/03/30 10:38:11;;;;;;;1.63;1.40;;;13.40;80.20;;;;;;4956500;28;20431;-73
2022/03/30 10:40:39;;;;;;;1.27;1.17;;;13.20;80.10;;;;;;4956978;28;20487;-73
2022/03/30 10:43:10;;;;;;;1.50;1.40;;;13.20;80.50;;;;;;4956401;28;20450;-73
2022/03/30 10:45:45;;;;;;;1.53;1.33;;;13.40;80.40;;;;;;4956254;28;20487;-73
2022/03/30 10:48:16;;;;;;;1.50;1.40;;;13.40;80.10;;;;;;4956457;28;20474;-73
2022/03/30 10:50:48;;;;;;;1.40;1.23;;;13.50;80.80;;;;;;4956392;28;20526;-73
2022/03/30 10:53:42;;;;;;;2.00;1.27;;;13.70;80.90;;;;;;4955793;28;20846;-73
2022/03/30 10:56:41;;;;;;;1.87;1.50;;;13.90;80.50;;;;;;4956076;28;20482;-73
2022/03/30 10:59:10;;;;;;;1.40;1.30;;;13.90;77.60;;;;;;4956212;28;20427;-73
2022/03/30 11:01:38;;;;;;;1.17;1.07;;;14.20;79.00;;;;;;4955873;28;20866;-73
2022/03/30 11:04:08;;;;;;;1.20;1.10;;;14.40;78.40;;;;;;4958090;28;20506;-74
2022/03/30 11:06:38;;;;;;;1.20;1.10;;;14.30;76.40;;;;;;4958012;28;20479;-76
2022/03/30 11:09:07;;;;;;;1.10;0.87;;;14.30;77.30;;;;;;4956167;28;20454;-73
2022/03/30 11:11:39;;;;;;;1.33;1.13;;;14.50;76.30;;;;;;4957039;28;20461;-76
2022/03/30 11:14:25;;;;;;;1.20;1.10;;;14.50;75.20;;;;;;4957251;28;20482;-77
2022/03/30 11:16:54;;;;;;;1.40;1.00;;;14.20;75.70;;;;;;4956156;28;20812;-76
2022/03/30 11:19:22;;;;;;;1.20;1.10;;;14.00;75.60;;;;;;4957170;28;20501;-73
2022/03/30 11:22:09;;;;;;;1.17;1.07;;;14.00;76.80;;;;;;4956421;28;20459;-74
2022/03/30 11:24:36;;;;;;;1.30;1.20;;;14.00;76.60;;;;;;4957029;28;20986;-74
2022/03/30 11:27:19;;;;;;;1.20;1.10;;;13.70;75.30;;;;;;4957433;28;20466;-74
2022/03/30 11:29:57;;;;;;;1.23;1.13;;;13.70;76.30;;;;;;4957089;28;20451;-74
2022/03/30 11:32:59;;;;;;;1.03;0.93;;;13.90;76.60;;;;;;4956529;28;20969;-74
2022/03/30 11:35:29;;;;;;;1.40;1.30;;;14.00;76.50;;;;;;4956609;28;20474;-74
2022/03/30 11:38:27;;;;;;;1.33;1.23;;;14.10;76.50;;;;;;4958733;28;20502;-75
2022/03/30 11:41:01;;;;;;;1.40;1.30;;;14.10;76.00;;;;;;4957820;28;20435;-76
2022/03/30 11:43:29;;;;;;;1.47;1.30;;;14.00;75.20;;;;;;4957199;28;20427;-74
2022/03/30 11:45:56;;;;;;;1.30;1.20;;;14.00;75.50;;;;;;4957605;28;20493;-75
2022/03/30 11:48:25;;;;;;;1.47;1.37;;;14.00;75.60;;;;;;4956849;28;20959;-74
2022/03/30 11:50:56;;;;;;;1.57;1.20;;;14.10;76.00;;;;;;4957444;28;20463;-74
2022/03/30 11:53:26;;;;;;;2.00;1.40;;;14.10;75.70;;;;;;4956277;28;20451;-75
2022/03/30 11:55:55;;;;;;;1.17;1.07;;;14.10;75.20;;;;;;4957538;28;20455;-74
2022/03/30 11:58:27;;;;;;;1.30;1.20;;;14.00;75.50;;;;;;4957210;28;20455;-75
2022/03/30 12:00:56;;;;;;;1.30;1.20;;;14.00;75.90;;;;;;4957119;28;20451;-73
2022/03/30 12:03:23;;;;;;;1.33;1.20;;;14.10;76.20;;;;;;4957453;28;20836;-74
2022/03/30 12:05:55;;;;;;;1.27;1.17;;;14.10;76.30;;;;;;4958012;28;20486;-74
2022/03/30 12:08:22;;;;;;;1.50;1.40;;;14.20;76.60;;;;;;4957714;28;20440;-75
2022/03/30 12:10:53;;;;;;;1.60;1.50;;;14.20;75.90;;;;;;4957254;28;20947;-74
2022/03/30 12:13:24;;;;;;;1.60;1.50;;;14.20;75.70;;;;;;4957661;28;20970;-74
2022/03/30 12:16:08;;;;;;;1.70;1.60;;;14.20;75.20;;;;;;4957704;28;20498;-73
2022/03/30 12:18:43;;;;;;;1.57;1.43;;;14.10;75.10;;;;;;4958091;28;20446;-74
2022/03/30 12:21:10;;;;;;;1.60;1.50;;;13.90;74.80;;;;;;4960097;28;20914;-74
2022/03/30 12:23:37;;;;;;;1.50;1.40;;;14.00;75.00;;;;;;4958680;28;20446;-74
2022/03/30 12:26:15;;;;;;;1.50;1.40;;;14.10;75.50;;;;;;4958431;28;21017;-74
2022/03/30 12:28:42;;;;;;;1.47;1.37;;;14.30;75.30;;;;;;4958653;28;20978;-74
2022/03/30 12:31:10;;;;;;;1.87;1.77;;;14.30;75.00;;;;;;4958711;28;20458;-74
2022/03/30 12:33:43;;;;;;;1.80;1.70;;;14.30;74.70;;;;;;4958865;28;20828;-75
2022/03/30 12:36:14;;;;;;;1.60;1.50;;;14.40;75.10;;;;;;4958817;28;20490;-74
2022/03/30 12:38:41;;;;;;;1.70;1.60;;;14.50;74.10;;;;;;4958720;28;20510;-73
2022/03/30 12:41:08;;;;;;;1.70;1.60;;;14.50;73.40;;;;;;4958315;28;20870;-74
2022/03/30 12:43:36;;;;;;;1.67;1.57;;;14.50;73.30;;;;;;4958571;28;20505;-73
2022/03/30 12:46:03;;;;;;;1.80;1.70;;;14.50;73.50;;;;;;4958672;28;20916;-73
2022/03/30 12:48:31;;;;;;;1.90;1.80;;;14.50;73.30;;;;;;4958906;28;20537;-74
2022/03/30 12:51:00;;;;;;;1.80;1.70;;;14.50;73.80;;;;;;4958794;28;20442;-74
2022/03/30 12:53:34;;;;;;;2.10;2.00;;;14.50;73.40;;;;;;4958469;28;20457;-74
2022/03/30 12:56:13;;;;;;;1.90;1.80;;;14.30;73.60;;;;;;4958277;28;20438;-74
2022/03/30 12:58:52;;;;;;;1.80;1.70;;;14.10;74.50;;;;;;4958031;28;20534;-74
2022/03/30 13:01:34;;;;;;;1.20;1.10;;;13.90;76.00;;;;;;4958411;28;20427;-74
2022/03/30 13:04:01;;;;;;;1.17;1.07;;;13.70;76.90;;;;;;4958294;28;20467;-74
2022/03/30 13:06:27;;;;;;;1.00;0.90;;;13.70;77.00;;;;;;4958195;28;20479;-73
2022/03/30 13:09:12;;;;;;;1.30;1.20;;;13.70;77.10;;;;;;4958051;28;20458;-73
2022/03/30 13:11:44;;;;;;;0.90;0.90;;;13.70;77.00;;;;;;4958196;28;20443;-74
2022/03/30 13:14:15;;;;;;;0.80;0.77;;;13.70;77.00;;;;;;4957820;28;20818;-74
2022/03/30 13:16:42;;;;;;;0.80;0.70;;;13.70;76.90;;;;;;4960743;28;20431;-73
2022/03/30 13:19:12;;;;;;;0.80;0.80;;;13.70;77.20;;;;;;4961548;28;20447;-74
2022/03/30 13:21:40;;;;;;;0.90;0.77;;;13.80;77.50;;;;;;4961027;28;20530;-74
2022/03/30 13:24:12;;;;;;;0.80;0.60;;;13.90;77.30;;;;;;4960273;28;20478;-74
2022/03/30 13:26:40;;;;;;;0.80;0.60;;;14.00;77.00;;;;;;4960320;28;20545;-73
2022/03/30 13:29:07;;;;;;;0.80;0.80;;;14.00;75.80;;;;;;4961112;28;20454;-73
2022/03/30 13:31:36;;;;;;;0.80;0.70;;;14.30;76.10;;;;;;4960132;28;20506;-73
2022/03/30 13:34:05;;;;;;;0.90;0.70;;;14.60;75.50;;;;;;4960208;28;20467;-73
2022/03/30 13:36:32;;;;;;;0.80;0.70;;;14.80;73.30;;;;;;4960367;28;20458;-73
2022/03/30 13:38:58;;;;;;;0.80;0.67;;;15.00;73.50;;;;;;4960351;28;20458;-73
2022/03/30 13:41:25;;;;;;;0.80;0.63;;;15.20;73.20;;;;;;4960468;28;20451;-74
2022/03/30 13:43:52;;;;;;;1.03;0.60;;;15.30;71.20;;;;;;4961071;28;20475;-74
2022/03/30 13:46:19;;;;;;;0.80;0.70;;;15.20;71.10;;;;;;4960479;28;20489;-74
2022/03/30 13:48:47;;;;;;;0.80;0.73;;;15.10;70.30;;;;;;4959894;28;20462;-75
2022/03/30 13:51:14;;;;;;;0.80;0.70;;;15.10;70.70;;;;;;4960706;28;20459;-72
2022/03/30 13:53:41;;;;;;;0.80;0.67;;;14.90;71.20;;;;;;4960493;28;20451;-74
2022/03/30 13:56:09;;;;;;;0.80;0.70;;;14.80;71.30;;;;;;4960328;28;20450;-74
2022/03/30 13:58:36;;;;;;;0.80;0.70;;;14.80;70.90;;;;;;4960789;28;21028;-74
2022/03/30 14:01:04;;;;;;;0.80;0.77;;;14.80;71.60;;;;;;4960237;28;20458;-73
2022/03/30 14:03:31;;;;;;;0.80;0.80;;;14.80;71.00;;;;;;4957407;28;20525;-73
2022/03/30 14:06:00;;;;;;;0.80;0.70;;;14.70;71.00;;;;;;4957258;28;20479;-74
2022/03/30 14:08:27;;;;;;;0.80;0.60;;;14.70;70.70;;;;;;4957724;28;20557;-74
2022/03/30 14:10:55;;;;;;;1.10;0.80;;;14.70;71.00;;;;;;4964164;28;20451;-73
2022/03/30 14:13:23;;;;;;;0.80;0.80;;;14.50;71.30;;;;;;4980892;28;20487;-73
2022/03/30 14:15:50;;;;;;;0.80;0.80;;;14.30;71.60;;;;;;4970985;28;20542;-74
2022/03/30 14:18:17;;;;;;;0.80;0.70;;;14.00;72.10;;;;;;4957103;28;20459;-73
2022/03/30 14:20:44;;;;;;;0.80;0.70;;;13.80;72.90;;;;;;4957403;28;20454;-74
2022/03/30 14:23:13;;;;;;;0.80;0.63;;;13.80;73.10;;;;;;4957221;28;20817;-73
2022/03/30 14:25:40;;;;;;;1.30;0.70;;;13.70;73.20;;;;;;4957080;28;20471;-74
2022/03/30 14:28:08;;;;;;;1.00;0.90;;;13.50;73.90;;;;;;4956801;28;20971;-74
2022/03/30 14:30:36;;;;;;;0.80;0.77;;;13.50;74.20;;;;;;4956499;28;20458;-73
2022/03/30 14:33:04;;;;;;;0.90;0.80;;;13.50;73.50;;;;;;4956586;28;20542;-74
2022/03/30 14:35:33;;;;;;;0.80;0.80;;;13.30;73.80;;;;;;4956600;28;20486;-74
2022/03/30 14:38:01;;;;;;;0.97;0.87;;;13.30;73.50;;;;;;4957467;28;20538;-75
2022/03/30 14:40:30;;;;;;;0.80;0.80;;;13.30;73.60;;;;;;4957505;28;20541;-73
2022/03/30 14:42:57;;;;;;;0.80;0.70;;;13.30;73.90;;;;;;4956368;28;20465;-74
2022/03/30 14:45:24;;;;;;;0.90;0.80;;;13.40;73.30;;;;;;4956748;28;20482;-74
2022/03/30 14:47:50;;;;;;;0.80;0.70;;;13.50;73.90;;;;;;4956972;28;20490;-74
2022/03/30 14:50:18;;;;;;;0.83;0.67;;;13.80;73.40;;;;;;4956119;28;20446;-74
2022/03/30 14:52:45;;;;;;;0.80;0.70;;;14.10;73.00;;;;;;4956208;28;20510;-74
2022/03/30 14:55:14;;;;;;;0.80;0.63;;;14.30;71.00;;;;;;4956213;28;20557;-74
2022/03/30 14:57:42;;;;;;;1.13;0.70;;;14.30;70.70;;;;;;4956220;28;20450;-74
2022/03/30 15:00:12;;;;;;;0.90;0.70;;;14.40;70.10;;;;;;4956284;28;20473;-73
2022/03/30 15:02:39;;;;;;;0.90;0.70;;;14.30;70.90;;;;;;4956224;28;20474;-74
2022/03/30 15:05:07;;;;;;;0.90;0.80;;;14.30;70.30;;;;;;4956029;28;20504;-74
2022/03/30 15:07:34;;;;;;;0.80;0.70;;;14.30;69.90;;;;;;4957005;28;21113;-73
2022/03/30 15:10:01;;;;;;;0.80;0.80;;;14.30;70.50;;;;;;4956268;28;20474;-74
2022/03/30 15:12:27;;;;;;;0.90;0.70;;;14.30;70.40;;;;;;4955887;28;20501;-74
2022/03/30 15:14:56;;;;;;;0.80;0.77;;;14.20;70.20;;;;;;5050942;23;20506;-73
2022/03/30 15:17:23;;;;;;;0.80;0.70;;;14.10;70.00;;;;;;4955229;28;20494;-72
2022/03/30 15:19:50;;;;;;;1.00;0.90;;;14.00;70.30;;;;;;4954758;28;20458;-72
2022/03/30 15:22:17;;;;;;;0.80;0.70;;;13.90;71.20;;;;;;4954898;28;20506;-72
2022/03/30 15:24:45;;;;;;;0.80;0.80;;;13.80;71.50;;;;;;4954600;28;20990;-73
2022/03/30 15:27:12;;;;;;;0.90;0.80;;;13.70;72.80;;;;;;4954987;28;20483;-72
2022/03/30 15:29:40;;;;;;;0.80;0.70;;;13.80;72.60;;;;;;4955198;28;20455;-72
2022/03/30 15:32:08;;;;;;;1.03;0.93;;;13.70;72.10;;;;;;4954900;28;20800;-73
2022/03/30 15:34:35;;;;;;;1.03;0.93;;;13.80;71.60;;;;;;4954853;28;20541;-72
2022/03/30 15:37:04;;;;;;;1.10;1.00;;;13.80;71.80;;;;;;4954783;28;20537;-72
2022/03/30 15:39:31;;;;;;;1.00;0.90;;;13.70;72.40;;;;;;4954971;28;20482;-72
2022/03/30 15:41:57;;;;;;;0.90;0.80;;;13.70;72.20;;;;;;4954934;28;20455;-72
2022/03/30 15:44:24;;;;;;;0.93;0.93;;;13.60;72.00;;;;;;4954956;28;20891;-73
2022/03/30 15:46:52;;;;;;;1.10;1.00;;;13.70;72.50;;;;;;4955279;28;20577;-74
2022/03/30 15:49:20;;;;;;;1.10;1.00;;;13.60;72.50;;;;;;4955130;28;21006;-71
2022/03/30 15:51:46;;;;;;;1.10;1.00;;;13.60;72.40;;;;;;4955487;28;20459;-73
2022/03/30 15:54:13;;;;;;;1.13;1.03;;;13.50;72.50;;;;;;4956188;28;20478;-73
2022/03/30 15:56:40;;;;;;;1.10;1.00;;;13.40;72.20;;;;;;4959126;28;20451;-73
2022/03/30 15:59:07;;;;;;;1.13;1.03;;;13.30;72.50;;;;;;4958842;28;20459;-74
2022/03/30 16:01:35;;;;;;;1.00;0.90;;;13.20;72.70;;;;;;4959048;28;20455;-74
2022/03/30 16:04:01;;;;;;;1.10;1.00;;;13.10;72.50;;;;;;4958516;28;21013;-74